Carrie B — WX5866 — position and weather

sailwx.info

Track history (hours):
 
Tides and Currents Weather Stations Pressure Air Temp Water Temp Dewpoint Dewpoint Depression Visibility Wind Speed Wind Dir Waves Ship Positions

Carrie B

Owner: Harbor Tours, Inc., PORTSMOUTH, VA. More information available from US FCC via Universal Licensing System and Coast Guard Vessel Documentation Center.

Last reported at 2018-Jun-25 01:29 UTC. Time now 2018-Jun-25 02:23 UTC.
Position N 26°07' W 080°08'.

Length 9 m; draft 3 m.

Type: Ship. MMSI: 366978030.

Date/timePositionNaut miles runAvg speedWind from/ knotsBaromVisibWave heightAir tempDewpointWater temp
2018-Jun-25 01:29N 26°07' W 080°08'1 2.6
2018-Jun-25 01:00N 26°07' W 080°07'1 2.5
2018-Jun-25 00:30N 26°08' W 080°07'0 0.7
2018-Jun-24 23:58N 26°08' W 080°07'1 2.8
2018-Jun-24 23:30N 26°07' W 080°07'1 1.7
2018-Jun-24 23:00N 26°07' W 080°08'0 0.1
2018-Jun-24 20:25N 26°07' W 080°08'1 3.5
2018-Jun-24 20:00N 26°07' W 080°07'1 2.8
2018-Jun-24 19:30N 26°06' W 080°07'2 1.7
2018-Jun-24 18:31N 26°07' W 080°08'0 0.4
2018-Jun-24 18:30N 26°07' W 080°08'2 3.2
2018-Jun-24 18:00N 26°07' W 080°07'2 3.0
2018-Jun-24 17:30N 26°06' W 080°07'2 3.7
2018-Jun-24 17:00N 26°07' W 080°08'0 0.0
2018-Jun-24 16:29N 26°07' W 080°08'2 3.3
2018-Jun-24 16:00N 26°07' W 080°07'1 3.0
2018-Jun-24 15:30N 26°06' W 080°07'2 1.7
2018-Jun-24 14:21N 26°07' W 080°08'0 0.0
2018-Jun-23 22:20N 26°07' W 080°08'1 3.9
2018-Jun-23 22:00N 26°07' W 080°07'0 0.9
2018-Jun-23 21:30N 26°06' W 080°07'1 1.6
2018-Jun-23 20:59N 26°07' W 080°08'0 0.8
2018-Jun-23 20:25N 26°07' W 080°08'2 3.6
2018-Jun-23 19:59N 26°07' W 080°07'1 2.6
2018-Jun-23 19:30N 26°06' W 080°07'2 1.8
2018-Jun-23 18:37N 26°07' W 080°08'0 0.1
2018-Jun-23 18:30N 26°07' W 080°08'2 3.1
2018-Jun-23 18:00N 26°07' W 080°07'1 3.0
2018-Jun-23 17:30N 26°06' W 080°07'2 3.6
2018-Jun-23 17:00N 26°07' W 080°08'1 1.2
2018-Jun-23 16:29N 26°07' W 080°08'1 2.1
2018-Jun-23 16:00N 26°07' W 080°07'1 2.9
2018-Jun-23 15:30N 26°06' W 080°07'2 3.6
2018-Jun-23 14:59N 26°07' W 080°08'0 0.0
2018-Jun-23 14:30N 26°07' W 080°08'0 0.0
2018-Jun-23 14:00N 26°07' W 080°08'0 0.0
2018-Jun-22 20:26N 26°07' W 080°08'2 3.6
2018-Jun-22 20:00N 26°07' W 080°07'1 2.2
2018-Jun-22 19:30N 26°06' W 080°07'1 1.5
2018-Jun-22 18:33N 26°07' W 080°08'0 5.6
2018-Jun-22 18:30N 26°07' W 080°08'1 2.1
2018-Jun-22 18:00N 26°07' W 080°07'0 0.7
2018-Jun-22 17:30N 26°07' W 080°07'1 2.2
2018-Jun-22 17:00N 26°07' W 080°08'0 0.0
2018-Jun-22 16:30N 26°07' W 080°08'2 3.2
2018-Jun-22 16:00N 26°07' W 080°07'1 3.0
2018-Jun-22 15:30N 26°06' W 080°07'2 4.0
2018-Jun-22 15:00N 26°07' W 080°08'0 0.0
2018-Jun-22 14:28N 26°07' W 080°08'0 0.0
2018-Jun-21 20:27N 26°07' W 080°08'2 3.6
2018-Jun-21 20:00N 26°07' W 080°07'1 2.4
2018-Jun-21 19:30N 26°06' W 080°07'2 1.5
2018-Jun-21 18:26N 26°07' W 080°08'2 3.7
2018-Jun-21 18:00N 26°07' W 080°07'1 2.0
2018-Jun-21 17:30N 26°06' W 080°07'1 2.7
2018-Jun-21 17:00N 26°07' W 080°08'0 0.0
2018-Jun-21 16:26N 26°07' W 080°08'2 3.7
2018-Jun-21 16:00N 26°07' W 080°07'1 2.7
2018-Jun-21 15:30N 26°06' W 080°07'2 3.4
2018-Jun-21 15:00N 26°07' W 080°08'0 0.0
2018-Jun-20 23:39N 26°07' W 080°08'1 4.0
2018-Jun-20 23:30N 26°07' W 080°08'2 3.6
2018-Jun-20 23:00N 26°08' W 080°06'3 6.1
2018-Jun-20 22:30N 26°12' W 080°06'3 5.0
2018-Jun-20 22:00N 26°14' W 080°06'2 3.4
2018-Jun-20 21:30N 26°16' W 080°05'3 6.3
2018-Jun-20 20:59N 26°19' W 080°05'2 4.0
2018-Jun-20 20:24N 26°21' W 080°05'3 5.5
2018-Jun-20 19:48N 26°25' W 080°04'13 0.4
2018-Jun-19 11:31N 26°11' W 080°06'3 6.2
2018-Jun-19 11:00N 26°08' W 080°07'2 3.1
2018-Jun-19 10:30N 26°07' W 080°07'1 0.1
2018-Jun-18 20:27N 26°07' W 080°08'2 3.5
2018-Jun-18 20:00N 26°07' W 080°07'1 2.5
2018-Jun-18 19:30N 26°06' W 080°07'2 2.7
2018-Jun-18 18:54N 26°07' W 080°08'0 0.0
2018-Jun-18 18:27N 26°07' W 080°08'2 3.6
2018-Jun-18 18:00N 26°07' W 080°07'1 1.2
2018-Jun-18 17:29N 26°07' W 080°07'1 1.3
2018-Jun-18 16:38N 26°07' W 080°08'0 0.0
2018-Jun-18 16:30N 26°07' W 080°08'2 3.2
2018-Jun-18 16:00N 26°07' W 080°07'1 2.6
2018-Jun-18 15:30N 26°06' W 080°07'2 3.3
2018-Jun-18 15:00N 26°07' W 080°08'2 0.1
2018-Jun-17 17:34N 26°06' W 080°07'0 3.0
2018-Jun-17 17:30N 26°06' W 080°07'2 3.7
2018-Jun-17 17:00N 26°07' W 080°08'0 0.0
2018-Jun-17 16:29N 26°07' W 080°08'2 3.3
2018-Jun-17 16:00N 26°07' W 080°07'1 2.0
2018-Jun-17 15:30N 26°06' W 080°07'1 0.1
2018-Jun-16 20:27N 26°07' W 080°08'2 3.5
2018-Jun-16 20:00N 26°07' W 080°07'1 2.8
2018-Jun-16 19:30N 26°06' W 080°07'2 3.2
2018-Jun-16 18:55N 26°07' W 080°08'0 0.0
2018-Jun-16 18:28N 26°07' W 080°08'2 3.4
2018-Jun-16 18:00N 26°07' W 080°07'1 3.0
2018-Jun-16 17:30N 26°06' W 080°07'2 3.5
2018-Jun-16 16:57N 26°07' W 080°08'0 0.0
2018-Jun-16 16:29N 26°07' W 080°08'2 3.3
2018-Jun-16 16:00N 26°07' W 080°07'1 2.8
2018-Jun-16 15:30N 26°06' W 080°07'2 3.5
2018-Jun-16 15:00N 26°07' W 080°08'0 0.0
2018-Jun-16 14:26N 26°07' W 080°08'0 0.0
2018-Jun-15 20:28N 26°07' W 080°08'2 3.3
2018-Jun-15 19:59N 26°07' W 080°07'1 2.4
2018-Jun-15 19:30N 26°06' W 080°07'2 1.5
2018-Jun-15 18:28N 26°07' W 080°08'2 3.4
2018-Jun-15 18:00N 26°07' W 080°07'1 3.0
2018-Jun-15 17:30N 26°06' W 080°07'2 1.8
2018-Jun-15 16:29N 26°07' W 080°08'1 3.1
2018-Jun-15 16:00N 26°07' W 080°07'1 2.4
2018-Jun-15 15:31N 26°06' W 080°07'  
Track history (hours):
 
Tides and Currents Weather Stations Pressure Air Temp Water Temp Dewpoint Dewpoint Depression Visibility Wind Speed Wind Dir Waves Ship Positions

Carrie B

Owner: Harbor Tours, Inc., PORTSMOUTH, VA. More information available from US FCC via Universal Licensing System and Coast Guard Vessel Documentation Center.

Last reported at 2018-Jun-25 01:29 UTC. Time now 2018-Jun-25 02:23 UTC.
Position N 26°07' W 080°08'.

Length 9 m; draft 3 m.

Type: Ship. MMSI: 366978030.

Date/timePositionNaut miles runAvg speedWind from/ knotsBaromVisibWave heightAir tempDewpointWater temp
2018-Jun-25 01:29N 26°07' W 080°08'1 2.6
2018-Jun-25 01:00N 26°07' W 080°07'1 2.5
2018-Jun-25 00:30N 26°08' W 080°07'0 0.7
2018-Jun-24 23:58N 26°08' W 080°07'1 2.8
2018-Jun-24 23:30N 26°07' W 080°07'1 1.7
2018-Jun-24 23:00N 26°07' W 080°08'0 0.1
2018-Jun-24 20:25N 26°07' W 080°08'1 3.5
2018-Jun-24 20:00N 26°07' W 080°07'1 2.8
2018-Jun-24 19:30N 26°06' W 080°07'2 1.7
2018-Jun-24 18:31N 26°07' W 080°08'0 0.4
2018-Jun-24 18:30N 26°07' W 080°08'2 3.2
2018-Jun-24 18:00N 26°07' W 080°07'2 3.0
2018-Jun-24 17:30N 26°06' W 080°07'2 3.7
2018-Jun-24 17:00N 26°07' W 080°08'0 0.0
2018-Jun-24 16:29N 26°07' W 080°08'2 3.3
2018-Jun-24 16:00N 26°07' W 080°07'1 3.0
2018-Jun-24 15:30N 26°06' W 080°07'2 1.7
2018-Jun-24 14:21N 26°07' W 080°08'0 0.0
2018-Jun-23 22:20N 26°07' W 080°08'1 3.9
2018-Jun-23 22:00N 26°07' W 080°07'0 0.9
2018-Jun-23 21:30N 26°06' W 080°07'1 1.6
2018-Jun-23 20:59N 26°07' W 080°08'0 0.8
2018-Jun-23 20:25N 26°07' W 080°08'2 3.6
2018-Jun-23 19:59N 26°07' W 080°07'1 2.6
2018-Jun-23 19:30N 26°06' W 080°07'2 1.8
2018-Jun-23 18:37N 26°07' W 080°08'0 0.1
2018-Jun-23 18:30N 26°07' W 080°08'2 3.1
2018-Jun-23 18:00N 26°07' W 080°07'1 3.0
2018-Jun-23 17:30N 26°06' W 080°07'2 3.6
2018-Jun-23 17:00N 26°07' W 080°08'1 1.2
2018-Jun-23 16:29N 26°07' W 080°08'1 2.1
2018-Jun-23 16:00N 26°07' W 080°07'1 2.9
2018-Jun-23 15:30N 26°06' W 080°07'2 3.6
2018-Jun-23 14:59N 26°07' W 080°08'0 0.0
2018-Jun-23 14:30N 26°07' W 080°08'0 0.0
2018-Jun-23 14:00N 26°07' W 080°08'0 0.0
2018-Jun-22 20:26N 26°07' W 080°08'2 3.6
2018-Jun-22 20:00N 26°07' W 080°07'1 2.2
2018-Jun-22 19:30N 26°06' W 080°07'1 1.5
2018-Jun-22 18:33N 26°07' W 080°08'0 5.6
2018-Jun-22 18:30N 26°07' W 080°08'1 2.1
2018-Jun-22 18:00N 26°07' W 080°07'0 0.7
2018-Jun-22 17:30N 26°07' W 080°07'1 2.2
2018-Jun-22 17:00N 26°07' W 080°08'0 0.0
2018-Jun-22 16:30N 26°07' W 080°08'2 3.2
2018-Jun-22 16:00N 26°07' W 080°07'1 3.0
2018-Jun-22 15:30N 26°06' W 080°07'2 4.0
2018-Jun-22 15:00N 26°07' W 080°08'0 0.0
2018-Jun-22 14:28N 26°07' W 080°08'0 0.0
2018-Jun-21 20:27N 26°07' W 080°08'2 3.6
2018-Jun-21 20:00N 26°07' W 080°07'1 2.4
2018-Jun-21 19:30N 26°06' W 080°07'2 1.5
2018-Jun-21 18:26N 26°07' W 080°08'2 3.7
2018-Jun-21 18:00N 26°07' W 080°07'1 2.0
2018-Jun-21 17:30N 26°06' W 080°07'1 2.7
2018-Jun-21 17:00N 26°07' W 080°08'0 0.0
2018-Jun-21 16:26N 26°07' W 080°08'2 3.7
2018-Jun-21 16:00N 26°07' W 080°07'1 2.7
2018-Jun-21 15:30N 26°06' W 080°07'2 3.4
2018-Jun-21 15:00N 26°07' W 080°08'0 0.0
2018-Jun-20 23:39N 26°07' W 080°08'1 4.0
2018-Jun-20 23:30N 26°07' W 080°08'2 3.6
2018-Jun-20 23:00N 26°08' W 080°06'3 6.1
2018-Jun-20 22:30N 26°12' W 080°06'3 5.0
2018-Jun-20 22:00N 26°14' W 080°06'2 3.4
2018-Jun-20 21:30N 26°16' W 080°05'3 6.3
2018-Jun-20 20:59N 26°19' W 080°05'2 4.0
2018-Jun-20 20:24N 26°21' W 080°05'3 5.5
2018-Jun-20 19:48N 26°25' W 080°04'13 0.4
2018-Jun-19 11:31N 26°11' W 080°06'3 6.2
2018-Jun-19 11:00N 26°08' W 080°07'2 3.1
2018-Jun-19 10:30N 26°07' W 080°07'1 0.1
2018-Jun-18 20:27N 26°07' W 080°08'2 3.5
2018-Jun-18 20:00N 26°07' W 080°07'1 2.5
2018-Jun-18 19:30N 26°06' W 080°07'2 2.7
2018-Jun-18 18:54N 26°07' W 080°08'0 0.0
2018-Jun-18 18:27N 26°07' W 080°08'2 3.6
2018-Jun-18 18:00N 26°07' W 080°07'1 1.2
2018-Jun-18 17:29N 26°07' W 080°07'1 1.3
2018-Jun-18 16:38N 26°07' W 080°08'0 0.0
2018-Jun-18 16:30N 26°07' W 080°08'2 3.2
2018-Jun-18 16:00N 26°07' W 080°07'1 2.6
2018-Jun-18 15:30N 26°06' W 080°07'2 3.3
2018-Jun-18 15:00N 26°07' W 080°08'2 0.1
2018-Jun-17 17:34N 26°06' W 080°07'0 3.0
2018-Jun-17 17:30N 26°06' W 080°07'2 3.7
2018-Jun-17 17:00N 26°07' W 080°08'0 0.0
2018-Jun-17 16:29N 26°07' W 080°08'2 3.3
2018-Jun-17 16:00N 26°07' W 080°07'1 2.0
2018-Jun-17 15:30N 26°06' W 080°07'1 0.1
2018-Jun-16 20:27N 26°07' W 080°08'2 3.5
2018-Jun-16 20:00N 26°07' W 080°07'1 2.8
2018-Jun-16 19:30N 26°06' W 080°07'2 3.2
2018-Jun-16 18:55N 26°07' W 080°08'0 0.0
2018-Jun-16 18:28N 26°07' W 080°08'2 3.4
2018-Jun-16 18:00N 26°07' W 080°07'1 3.0
2018-Jun-16 17:30N 26°06' W 080°07'2 3.5
2018-Jun-16 16:57N 26°07' W 080°08'0 0.0
2018-Jun-16 16:29N 26°07' W 080°08'2 3.3
2018-Jun-16 16:00N 26°07' W 080°07'1 2.8
2018-Jun-16 15:30N 26°06' W 080°07'2 3.5
2018-Jun-16 15:00N 26°07' W 080°08'0 0.0
2018-Jun-16 14:26N 26°07' W 080°08'0 0.0
2018-Jun-15 20:28N 26°07' W 080°08'2 3.3
2018-Jun-15 19:59N 26°07' W 080°07'1 2.4
2018-Jun-15 19:30N 26°06' W 080°07'2 1.5
2018-Jun-15 18:28N 26°07' W 080°08'2 3.4
2018-Jun-15 18:00N 26°07' W 080°07'1 3.0
2018-Jun-15 17:30N 26°06' W 080°07'2 1.8
2018-Jun-15 16:29N 26°07' W 080°08'1 3.1
2018-Jun-15 16:00N 26°07' W 080°07'1 2.4
2018-Jun-15 15:31N 26°06' W 080°07'  

Dump ship's entire track history